Time;durP1;ratioP1;P1;durP2;ratioP2;P2;SDS_P1;SDS_P2;PMS_P1;PMS_P2;Temp;Humidity;BMP_temperature;BMP_pressure;BME280_temperature;BME280_humidity;BME280_pressure;Samples;Min_cycle;Max_cycle;Signal;HPM_P1;HPM_P2
2022/08/25 00:02:00;;;;;;;60.83;10.50;;;;;;;-143.84;68.70;45054.78;5109932;28;20482;-75
2022/08/25 00:04:29;;;;;;;64.30;10.23;;;;;;;-143.84;68.83;45052.88;5110280;28;21154;-75
2022/08/25 00:06:56;;;;;;;99.87;10.07;;;;;;;-143.84;69.29;45045.25;5110100;28;20522;-75
2022/08/25 00:09:26;;;;;;;59.73;9.77;;;;;;;-143.84;69.15;45049.06;5109962;28;20447;-75
2022/08/25 00:11:54;;;;;;;75.60;9.47;;;;;;;-143.84;69.70;45039.53;5109742;28;20450;-75
2022/08/25 00:14:24;;;;;;;72.73;10.07;;;;;;;-143.84;69.60;45085.25;5110032;28;20431;-75
2022/08/25 00:16:51;;;;;;;83.30;10.47;;;;;;;-143.84;69.36;45039.53;5109540;28;20435;-75
2022/08/25 00:19:23;;;;;;;79.37;10.10;;;;;;;-143.84;69.58;45056.69;5109756;28;20439;-75
2022/08/25 00:21:50;;;;;;;66.33;9.67;;;;;;;-143.84;69.52;45075.72;5109741;28;20606;-75
2022/08/25 00:24:19;;;;;;;75.90;9.67;;;;;;;-143.84;69.63;45047.16;5110154;28;20869;-75
2022/08/25 00:26:49;;;;;;;69.83;9.87;;;;;;;-143.84;69.60;45047.16;5109290;28;20479;-75
2022/08/25 00:29:17;;;;;;;67.77;10.13;;;;;;;-143.84;70.20;45031.94;5109981;28;20496;-75
2022/08/25 00:31:45;;;;;;;103.33;11.40;;;;;;;-143.84;70.45;45070.00;5109480;28;20427;-75
2022/08/25 00:34:16;;;;;;;60.57;10.53;;;;;;;-143.84;70.73;45092.88;5109561;28;20461;-75
2022/08/25 00:36:46;;;;;;;63.97;9.27;;;;;;;-143.84;70.98;45047.16;5109441;28;20475;-75
2022/08/25 00:39:14;;;;;;;79.93;11.53;;;;;;;-143.84;71.55;45056.69;5110244;28;20513;-75
2022/08/25 00:41:43;;;;;;;71.87;11.60;;;;;;;-143.84;71.43;45052.88;5109544;28;20447;-75
2022/08/25 00:44:12;;;;;;;70.77;10.73;;;;;;;-143.84;71.74;45037.66;5109228;28;20439;-75
2022/08/25 00:46:43;;;;;;;52.90;10.17;;;;;;;-143.84;72.17;45068.13;5109455;28;20616;-75
2022/08/25 00:49:13;;;;;;;49.93;9.37;;;;;;;-143.84;71.40;45071.91;5109536;28;20860;-75
2022/08/25 00:51:47;;;;;;;67.47;9.87;;;;;;;-143.84;71.62;45043.34;5109138;28;20431;-75
2022/08/25 00:54:18;;;;;;;69.73;9.60;;;;;;;-143.84;71.62;45081.44;5109177;28;21033;-75
2022/08/25 00:56:47;;;;;;;65.43;8.63;;;;;;;-143.84;71.64;45058.59;5109347;28;20431;-75
2022/08/25 00:59:16;;;;;;;82.23;10.50;;;;;;;-143.84;71.57;45068.13;5109319;28;20438;-75
2022/08/25 01:01:43;;;;;;;63.10;7.97;;;;;;;-143.84;71.49;45060.50;5109193;28;20453;-75
2022/08/25 01:04:10;;;;;;;52.77;9.53;;;;;;;-143.84;71.39;45071.91;5109148;28;20486;-75
2022/08/25 01:06:42;;;;;;;83.67;10.90;;;;;;;-143.84;70.71;45071.91;5109262;28;20495;-75
2022/08/25 01:09:12;;;;;;;55.70;10.30;;;;;;;-143.84;70.33;45039.53;5109293;28;20530;-75
2022/08/25 01:11:40;;;;;;;48.43;7.90;;;;;;;-143.84;70.60;45064.31;5109057;28;20521;-75
2022/08/25 01:14:07;;;;;;;58.63;8.90;;;;;;;-143.84;70.38;45085.25;5109104;28;21006;-75
2022/08/25 01:16:36;;;;;;;54.67;9.27;;;;;;;-143.84;70.42;45075.72;5109213;28;20578;-75
2022/08/25 01:19:05;;;;;;;62.67;8.80;;;;;;;-143.84;70.48;45071.91;5109137;28;20439;-75
2022/08/25 01:21:40;;;;;;;60.60;10.07;;;;;;;-143.84;70.41;45089.06;5109260;28;20470;-75
2022/08/25 01:24:11;;;;;;;65.90;8.70;;;;;;;-143.84;70.11;45066.22;5108852;28;21051;-75
2022/08/25 01:26:38;;;;;;;59.90;8.73;;;;;;;-143.84;69.92;45081.44;5108745;28;21045;-75
2022/08/25 01:29:25;;;;;;;87.13;10.73;;;;;;;-143.84;70.09;45100.47;5113226;28;20435;-75
2022/08/25 01:31:56;;;;;;;39.17;8.53;;;;;;;-143.84;70.04;45079.53;5113222;28;20478;-75
2022/08/25 01:34:25;;;;;;;110.80;10.73;;;;;;;-143.84;69.72;45083.34;5112945;28;20470;-75
2022/08/25 01:36:54;;;;;;;53.17;8.23;;;;;;;-143.84;69.82;45085.25;5112845;28;20861;-75
2022/08/25 01:39:23;;;;;;;76.47;9.23;;;;;;;-143.84;69.48;45064.31;5112921;28;20447;-75
2022/08/25 01:42:10;;;;;;;70.13;8.67;;;;;;;-143.84;69.21;45045.25;5112676;27;20439;-74
2022/08/25 01:44:39;;;;;;;61.10;8.23;;;;;;;-143.84;68.86;45058.59;5099901;27;20785;-75
2022/08/25 01:47:08;;;;;;;50.00;8.13;;;;;;;-143.84;69.03;45054.78;5112967;28;20438;-75
2022/08/25 01:49:35;;;;;;;53.83;9.50;;;;;;;-143.84;69.20;45066.22;5112840;28;20442;-75
2022/08/25 01:52:15;;;;;;;44.97;8.00;;;;;;;-143.84;68.79;45068.13;5112596;28;20438;-75
2022/08/25 01:54:42;;;;;;;48.47;7.63;;;;;;;-143.84;68.84;45070.00;5112607;28;20442;-75
2022/08/25 01:57:09;;;;;;;69.57;8.80;;;;;;;-143.84;68.91;45079.53;5112650;28;20442;-75
2022/08/25 01:59:36;;;;;;;53.87;8.73;;;;;;;-143.84;68.69;45085.25;5112330;28;20430;-75
2022/08/25 02:02:05;;;;;;;61.93;9.27;;;;;;;-143.84;68.80;45066.22;5112555;28;20673;-75
2022/08/25 02:04:33;;;;;;;79.67;8.63;;;;;;;-143.84;68.36;45064.31;5112450;28;20490;-75
2022/08/25 02:07:00;;;;;;;56.17;7.23;;;;;;;-143.84;68.30;45052.88;5112629;27;20443;-75
2022/08/25 02:09:29;;;;;;;37.70;7.80;;;;;;;-143.84;68.85;45062.41;5112236;28;20454;-75
2022/08/25 02:11:56;;;;;;;57.90;8.77;;;;;;;-143.84;69.44;45060.50;5112373;28;20445;-75
2022/08/25 02:14:24;;;;;;;71.73;7.60;;;;;;;-143.84;69.19;45075.72;5112249;28;20804;-75
2022/08/25 02:16:53;;;;;;;64.10;7.40;;;;;;;-143.84;69.90;45066.22;5112181;28;20499;-75
2022/08/25 02:19:23;;;;;;;40.83;6.80;;;;;;;-143.84;70.14;45054.78;5112335;28;20980;-75
2022/08/25 02:21:50;;;;;;;61.57;6.87;;;;;;;-143.84;69.67;45068.13;5112189;28;20935;-75
2022/08/25 02:24:18;;;;;;;62.77;6.90;;;;;;;-143.84;70.17;45100.47;5111672;28;20470;-75
2022/08/25 02:26:46;;;;;;;61.83;7.60;;;;;;;-143.84;70.32;45045.25;5111761;28;20482;-75
2022/08/25 02:29:14;;;;;;;39.60;8.17;;;;;;;-143.84;70.24;45066.22;5111885;28;20447;-75
2022/08/25 02:31:41;;;;;;;60.37;8.30;;;;;;;-143.84;70.37;45094.78;5111965;28;20435;-75
2022/08/25 02:34:10;;;;;;;40.73;6.40;;;;;;;-143.84;70.47;45066.22;5111599;28;20438;-75
2022/08/25 02:36:39;;;;;;;43.67;8.60;;;;;;;-143.84;70.59;45062.41;5112077;28;20945;-75
2022/08/25 02:39:09;;;;;;;41.27;8.00;;;;;;;-143.84;70.60;45073.81;5110872;28;20447;-75
2022/08/25 02:41:37;;;;;;;39.67;7.60;;;;;;;-143.84;70.90;45079.53;5111433;28;20862;-75
2022/08/25 02:44:07;;;;;;;57.70;6.33;;;;;;;-143.84;70.80;45056.69;5111713;28;20462;-75
2022/08/25 02:46:34;;;;;;;48.57;6.40;;;;;;;-143.84;70.65;45089.06;5111135;28;20954;-74
2022/08/25 02:49:01;;;;;;;35.87;6.00;;;;;;;-143.84;70.51;45052.88;5110725;27;20434;-75
2022/08/25 02:51:30;;;;;;;58.87;7.20;;;;;;;-143.84;70.46;45073.81;5110620;28;20435;-75
2022/08/25 02:53:58;;;;;;;43.10;6.43;;;;;;;-143.84;70.76;45071.91;5111449;28;20496;-75
2022/08/25 02:56:25;;;;;;;34.80;6.13;;;;;;;-143.84;70.48;45077.63;5111328;28;20438;-75
2022/08/25 02:58:53;;;;;;;36.80;6.90;;;;;;;-143.84;70.54;45066.22;5111175;28;20435;-75
2022/08/25 03:01:22;;;;;;;45.10;6.60;;;;;;;-143.84;70.73;45083.34;5111231;28;20457;-75
2022/08/25 03:03:51;;;;;;;40.27;6.30;;;;;;;-143.84;70.95;45083.34;5111466;28;20479;-75
2022/08/25 03:06:23;;;;;;;42.00;6.60;;;;;;;-143.84;70.83;45087.16;5111026;28;20792;-73
2022/08/25 03:08:50;;;;;;;64.17;7.93;;;;;;;-143.84;70.94;45081.44;5111361;28;20439;-73
2022/08/25 03:11:18;;;;;;;33.67;6.30;;;;;;;-143.84;70.66;45030.03;5111124;28;20435;-73
2022/08/25 03:13:45;;;;;;;46.77;6.63;;;;;;;-143.84;70.16;45090.97;5111041;28;20504;-74
2022/08/25 03:16:12;;;;;;;46.60;7.03;;;;;;;-143.84;70.07;45064.31;5111201;28;20435;-75
2022/08/25 03:18:42;;;;;;;80.17;7.83;;;;;;;-143.84;70.41;45043.34;5111113;28;20657;-75
2022/08/25 03:21:10;;;;;;;36.30;7.10;;;;;;;-143.84;71.03;45079.53;5110826;27;20493;-75
2022/08/25 03:23:38;;;;;;;36.23;6.10;;;;;;;-143.84;70.87;45052.88;5110796;28;21098;-75
2022/08/25 03:28:50;;;;;;;44.93;7.10;;;;;;;-143.84;70.91;45060.50;5111047;28;20421;-75
2022/08/25 03:31:17;;;;;;;41.73;6.80;;;;;;;-143.84;70.91;45071.91;5110833;28;20960;-75
2022/08/25 03:33:46;;;;;;;33.03;7.23;;;;;;;-143.84;71.77;45062.41;5116626;27;20453;-75
2022/08/25 03:36:13;;;;;;;62.53;7.03;;;;;;;-143.84;70.73;45031.94;5131313;27;20999;-74
2022/08/25 03:38:41;;;;;;;39.17;6.50;;;;;;;-143.84;70.85;45049.06;5131254;27;20434;-75
2022/08/25 03:41:14;;;;;;;59.90;7.73;;;;;;;-143.84;70.48;45087.16;5131074;27;20454;-75
2022/08/25 03:43:42;;;;;;;32.63;6.90;;;;;;;-143.84;71.71;45052.88;5131224;27;20570;-74
2022/08/25 03:46:09;;;;;;;31.83;6.97;;;;;;;-143.84;72.05;45070.00;5131004;27;20438;-74
2022/08/25 03:48:36;;;;;;;39.90;6.60;;;;;;;-143.84;71.71;45068.13;5131241;27;20930;-74
2022/08/25 03:51:05;;;;;;;32.87;6.90;;;;;;;-143.84;72.34;45047.16;5129734;27;20438;-74
2022/08/25 03:53:32;;;;;;;47.73;7.67;;;;;;;-143.84;72.37;45077.63;5112394;27;20503;-74
2022/08/25 03:56:00;;;;;;;48.07;7.53;;;;;;;-143.84;72.54;45077.63;5130735;27;20446;-75
2022/08/25 03:58:27;;;;;;;55.70;7.10;;;;;;;-143.84;72.96;45054.78;5130810;27;20438;-74
2022/08/25 04:00:58;;;;;;;35.57;6.47;;;;;;;-143.84;73.10;45050.97;5130740;27;20438;-74
2022/08/25 04:03:26;;;;;;;48.00;6.73;;;;;;;-143.84;73.65;45100.47;5118661;27;20561;-75
2022/08/25 04:05:53;;;;;;;30.30;7.00;;;;;;;-143.84;75.20;45064.31;5110064;28;20435;-74
2022/08/25 04:08:21;;;;;;;38.70;7.30;;;;;;;-143.84;75.38;45056.69;5109277;28;20435;-74
2022/08/25 04:10:48;;;;;;;48.63;5.90;;;;;;;-143.84;74.98;45106.19;5109996;28;20442;-74
2022/08/25 04:13:17;;;;;;;50.40;7.83;;;;;;;-143.84;75.16;45073.81;5126323;27;20473;-71
2022/08/25 04:15:44;;;;;;;40.53;7.47;;;;;;;-143.84;75.05;45090.97;5130726;27;20449;-74
2022/08/25 04:18:12;;;;;;;37.33;7.70;;;;;;;-143.84;74.59;45085.25;5130728;27;20495;-74
2022/08/25 04:20:40;;;;;;;47.43;8.77;;;;;;;-143.84;74.55;45039.53;5129493;27;21018;-74
2022/08/25 04:23:07;;;;;;;55.13;8.70;;;;;;;-143.84;74.72;45079.53;5109611;28;20454;-74
2022/08/25 04:25:41;;;;;;;50.47;6.77;;;;;;;-143.84;74.94;45083.34;5109493;28;20475;-74
2022/08/25 04:28:08;;;;;;;57.10;7.30;;;;;;;-143.84;75.98;45070.00;5109977;28;20439;-74
2022/08/25 04:30:35;;;;;;;43.70;6.43;;;;;;;-143.84;76.29;45062.41;5109664;28;20443;-74
2022/08/25 04:33:02;;;;;;;58.13;6.70;;;;;;;-143.84;76.95;45087.16;5109727;28;20439;-74
2022/08/25 04:35:29;;;;;;;45.40;6.90;;;;;;;-143.84;77.72;45075.72;5109736;28;20447;-74
2022/08/25 04:37:56;;;;;;;36.30;6.63;;;;;;;-143.84;77.29;45052.88;5109438;28;20538;-74
2022/08/25 04:40:25;;;;;;;47.50;8.70;;;;;;;-143.84;77.34;45064.31;5109635;28;20443;-74
2022/08/25 04:42:54;;;;;;;60.37;7.77;;;;;;;-143.84;76.56;45043.34;5109640;28;20824;-74
2022/08/25 04:45:21;;;;;;;51.57;6.20;;;;;;;-143.84;75.22;45064.31;5109320;28;20475;-74
2022/08/25 04:47:48;;;;;;;37.13;7.07;;;;;;;-143.84;74.56;45050.97;5109382;28;20842;-74
2022/08/25 04:50:15;;;;;;;30.47;6.83;;;;;;;-143.84;74.83;45041.44;5109701;28;20435;-74
2022/08/25 04:52:42;;;;;;;23.90;5.27;;;;;;;-143.84;72.73;45045.25;5109026;28;20487;-74
2022/08/25 04:55:10;;;;;;;49.50;6.80;;;;;;;-143.84;71.10;45049.06;5109466;28;20443;-72
2022/08/25 04:57:37;;;;;;;40.80;6.40;;;;;;;-143.84;70.92;45052.88;5109632;28;20434;-76
2022/08/25 05:00:07;;;;;;;29.73;6.90;;;;;;;-143.84;71.36;45014.78;5109882;28;20788;-76
2022/08/25 05:02:35;;;;;;;35.00;7.27;;;;;;;-143.84;71.76;45045.25;5108834;28;20512;-76
2022/08/25 05:05:02;;;;;;;32.00;6.47;;;;;;;-143.84;72.08;45024.31;5109298;28;20543;-76
2022/08/25 05:07:30;;;;;;;42.27;7.87;;;;;;;-143.84;73.04;45028.13;5109303;28;20942;-76
2022/08/25 05:09:57;;;;;;;33.97;6.73;;;;;;;-143.84;73.18;45062.41;5109559;28;20441;-77
2022/08/25 05:12:24;;;;;;;34.17;6.67;;;;;;;-143.84;72.59;45045.25;5109397;28;20805;-76
2022/08/25 05:14:53;;;;;;;45.93;7.83;;;;;;;-143.84;71.93;45071.91;5109345;28;20465;-76
2022/08/25 05:17:22;;;;;;;34.77;7.30;;;;;;;-143.84;72.02;45010.97;5109102;28;20450;-76
2022/08/25 05:19:49;;;;;;;32.43;7.50;;;;;;;-143.84;71.25;45020.50;5109270;28;20504;-77
2022/08/25 05:22:16;;;;;;;51.03;6.93;;;;;;;-143.84;70.80;45022.41;5109206;28;20886;-76
2022/08/25 05:24:43;;;;;;;32.43;6.90;;;;;;;-143.84;69.94;45026.22;5108990;28;20557;-77
2022/08/25 05:27:10;;;;;;;56.60;14.37;;;;;;;-143.84;69.59;45016.69;5109890;28;20908;-79
2022/08/25 05:29:38;;;;;;;61.10;8.57;;;;;;;-143.84;69.16;45007.19;5109091;28;20442;-77
2022/08/25 05:32:05;;;;;;;38.00;6.80;;;;;;;-143.84;68.57;45007.19;5108812;28;20472;-75
2022/08/25 05:34:35;;;;;;;25.43;7.23;;;;;;;-143.84;67.79;45022.41;5108842;28;20446;-75
2022/08/25 05:37:03;;;;;;;45.20;7.40;;;;;;;-143.84;67.54;44999.56;5108913;28;20443;-75
2022/08/25 05:39:32;;;;;;;44.17;7.67;;;;;;;-143.84;67.18;45016.69;5108791;28;20446;-76
2022/08/25 05:41:59;;;;;;;38.40;7.30;;;;;;;-143.84;67.75;45001.47;5109159;28;20554;-75
2022/08/25 05:44:27;;;;;;;41.73;8.03;;;;;;;-143.84;68.71;44997.66;5108902;28;20483;-76
2022/08/25 05:46:54;;;;;;;54.43;7.80;;;;;;;-143.84;68.90;45018.59;5108536;28;20434;-75
2022/08/25 05:49:21;;;;;;;49.77;7.43;;;;;;;-143.84;69.74;45018.59;5109002;28;20507;-75
2022/08/25 05:51:50;;;;;;;55.10;8.07;;;;;;;-143.84;69.74;45052.88;5108556;28;20835;-75
2022/08/25 05:54:17;;;;;;;39.57;7.13;;;;;;;-143.84;69.91;45014.78;5108435;28;20435;-76
2022/08/25 05:56:45;;;;;;;41.93;8.03;;;;;;;-143.84;69.40;45007.19;5108655;28;20446;-76
2022/08/25 05:59:12;;;;;;;35.27;8.23;;;;;;;-143.84;69.59;45014.78;5108656;28;20475;-76
2022/08/25 06:04:24;;;;;;;40.73;6.63;;;;;;;-143.84;69.00;45018.59;5108920;28;20612;-81
2022/08/25 06:06:54;;;;;;;34.47;6.93;;;;;;;-143.84;69.41;45012.88;5109184;28;20481;-76
2022/08/25 06:09:22;;;;;;;33.13;7.23;;;;;;;-143.84;69.12;45007.19;5116315;28;20470;-77
2022/08/25 06:11:49;;;;;;;28.57;7.80;;;;;;;-143.84;69.46;45010.97;5129869;28;20894;-79
2022/08/25 06:14:16;;;;;;;82.23;42.43;;;;;;;-143.84;69.76;45037.66;5132795;27;20438;-79
2022/08/25 06:16:43;;;;;;;46.47;8.27;;;;;;;-143.84;69.44;44986.22;5132955;27;20438;-76
2022/08/25 06:19:11;;;;;;;40.07;6.73;;;;;;;-143.84;69.19;45018.59;5132942;27;20498;-76
2022/08/25 06:21:39;;;;;;;40.90;6.90;;;;;;;-143.84;68.25;44995.75;5132675;27;20442;-76
2022/08/25 06:24:09;;;;;;;26.93;6.47;;;;;;;-143.84;66.99;44974.81;5132688;27;20542;-76
2022/08/25 06:26:36;;;;;;;26.53;5.40;;;;;;;-143.84;65.78;44993.84;5132405;27;20489;-76
2022/08/25 06:29:04;;;;;;;30.10;5.63;;;;;;;-143.84;64.78;44995.75;5132693;27;20434;-76
2022/08/25 06:31:31;;;;;;;37.00;6.37;;;;;;;-143.84;63.32;44967.19;5133044;27;20447;-77
2022/08/25 06:33:59;;;;;;;20.83;5.00;;;;;;;-143.84;62.25;44986.22;5132725;27;20456;-76
2022/08/25 06:36:26;;;;;;;32.40;5.93;;;;;;;-143.84;61.88;44944.34;5132652;27;20795;-77
2022/08/25 06:38:53;;;;;;;28.53;6.30;;;;;;;-143.84;60.13;44940.53;5132539;27;20555;-76
2022/08/25 06:41:22;;;;;;;26.43;5.60;;;;;;;-143.84;59.13;44921.50;5132395;27;20450;-76
2022/08/25 06:43:49;;;;;;;17.20;5.00;;;;;;;-143.84;58.04;44931.00;5132396;27;20919;-74
2022/08/25 06:46:18;;;;;;;31.27;6.20;;;;;;;-143.84;57.70;44934.81;5132372;27;20883;-77
2022/08/25 06:48:46;;;;;;;27.23;7.63;;;;;;;-143.84;57.68;44951.97;5133794;27;20430;-80
2022/08/25 06:51:16;;;;;;;80.80;25.37;;;;;;;-143.84;57.91;44936.72;5134195;27;20529;-78
2022/08/25 06:53:45;;;;;;;23.97;5.00;;;;;;;-143.84;57.06;44993.84;5132754;27;20503;-79
2022/08/25 06:56:13;;;;;;;25.00;5.33;;;;;;;-143.84;57.54;44927.19;5131792;27;20462;-79
2022/08/25 06:58:42;;;;;;;51.30;25.53;;;;;;;-143.84;57.57;44923.41;5133829;27;20871;-77
2022/08/25 07:01:11;;;;;;;28.13;7.40;;;;;;;-143.84;57.67;44942.44;5133250;27;20446;-78
2022/08/25 07:03:38;;;;;;;23.43;5.47;;;;;;;-143.84;58.25;44971.00;5133246;27;20494;-80
2022/08/25 07:06:06;;;;;;;35.43;5.13;;;;;;;-143.84;58.80;44931.00;5133338;27;20473;-78
2022/08/25 07:08:34;;;;;;;27.07;4.80;;;;;;;-143.84;58.24;44951.97;5133360;27;20494;-78
2022/08/25 07:11:05;;;;;;;21.43;4.73;;;;;;;-143.84;57.39;44938.63;5132633;27;20442;-79
2022/08/25 07:13:32;;;;;;;43.47;5.60;;;;;;;-143.84;55.86;44934.81;5132456;27;20851;-78
2022/08/25 07:16:01;;;;;;;21.30;4.40;;;;;;;-143.84;54.57;44917.69;5131227;27;20438;-78
2022/08/25 07:18:28;;;;;;;30.00;8.13;;;;;;;-143.84;54.77;44948.16;5131828;27;20495;-83
2022/08/25 07:20:56;;;;;;;66.20;34.00;;;;;;;-143.84;54.97;44934.81;5133034;27;20916;-85
2022/08/25 07:23:24;;;;;;;20.90;5.13;;;;;;;-143.84;55.26;44942.44;5132368;27;20446;-80
2022/08/25 07:25:52;;;;;;;23.13;4.83;;;;;;;-143.84;54.48;44957.66;5131848;27;20497;-80
2022/08/25 07:28:20;;;;;;;20.33;5.03;;;;;;;-143.84;54.45;44925.31;5133562;27;20821;-78
2022/08/25 07:30:47;;;;;;;26.93;5.37;;;;;;;-143.84;55.94;44925.31;5132416;27;20457;-80
2022/08/25 07:33:16;;;;;;;22.17;4.43;;;;;;;-143.84;56.55;44911.97;5132080;27;20908;-77
2022/08/25 07:35:42;;;;;;;15.50;4.40;;;;;;;-143.84;55.50;44931.00;5132982;27;20435;-79
2022/08/25 07:38:09;;;;;;;19.20;4.30;;;;;;;-143.84;55.16;44915.78;5132248;27;20507;-77
2022/08/25 07:40:38;;;;;;;26.40;5.03;;;;;;;-143.84;54.15;44921.50;5131789;27;21328;-77
2022/08/25 07:43:07;;;;;;;20.27;4.53;;;;;;;-143.84;54.43;44927.19;5131407;27;20986;-77
2022/08/25 07:45:37;;;;;;;19.93;3.50;;;;;;;-143.84;53.60;44923.41;5131408;27;20481;-77
2022/08/25 07:48:07;;;;;;;23.93;4.40;;;;;;;-143.84;53.58;44917.69;5131723;27;20446;-77
2022/08/25 07:50:38;;;;;;;22.83;4.67;;;;;;;-143.84;52.05;44908.16;5131306;27;20438;-77
2022/08/25 07:53:06;;;;;;;19.03;4.77;;;;;;;-143.84;49.91;44934.81;5131252;27;20477;-77
2022/08/25 07:55:35;;;;;;;26.97;5.80;;;;;;;-143.84;50.09;44944.34;5131462;27;20458;-77
2022/08/25 07:58:03;;;;;;;21.43;5.10;;;;;;;-143.84;48.06;44911.97;5131208;27;20434;-77
2022/08/25 08:00:32;;;;;;;12.40;4.77;;;;;;;-143.84;49.06;44917.69;5131126;27;20959;-77
2022/08/25 08:03:00;;;;;;;8.83;3.90;;;;;;;-143.84;50.21;44900.53;5130695;27;20910;-77
2022/08/25 08:05:28;;;;;;;12.57;3.90;;;;;;;-143.84;49.67;44892.94;5131854;27;20477;-77
2022/08/25 08:07:58;;;;;;;23.63;4.67;;;;;;;-143.84;48.98;44908.16;5132231;27;20434;-77
2022/08/25 08:10:26;;;;;;;23.50;4.77;;;;;;;-143.84;46.24;44915.78;5131337;27;20448;-77
2022/08/25 08:12:53;;;;;;;22.70;4.13;;;;;;;-143.84;47.01;44915.78;5130660;27;20450;-77
2022/08/25 08:15:21;;;;;;;17.63;4.27;;;;;;;-143.84;45.53;44891.03;5131134;27;20446;-75
2022/08/25 08:17:49;;;;;;;26.80;4.80;;;;;;;-143.84;45.32;44915.78;5130702;27;20446;-75
2022/08/25 08:20:16;;;;;;;22.93;4.33;;;;;;;-143.84;45.83;44908.16;5130821;27;20495;-75
2022/08/25 08:22:45;;;;;;;27.57;5.47;;;;;;;-143.84;46.15;44887.22;5130733;27;20837;-75
2022/08/25 08:25:14;;;;;;;17.23;4.00;;;;;;;-143.84;44.61;44917.69;5130200;27;20509;-75
2022/08/25 08:27:44;;;;;;;19.10;3.83;;;;;;;-143.84;45.08;44900.53;5130679;27;20914;-77
2022/08/25 08:30:13;;;;;;;26.00;4.93;;;;;;;-143.84;44.67;44900.53;5129769;27;20537;-77
2022/08/25 08:32:40;;;;;;;29.57;4.63;;;;;;;-143.84;44.73;44908.16;5130364;27;20434;-77
2022/08/25 08:35:09;;;;;;;27.10;4.73;;;;;;;-143.84;43.84;44887.22;5112592;27;20467;-77
2022/08/25 08:37:40;;;;;;;16.60;3.97;;;;;;;-143.84;41.63;44868.19;5109392;28;20503;-77
2022/08/25 08:40:09;;;;;;;21.17;5.33;;;;;;;-143.84;43.10;44898.66;5109948;28;21264;-77
2022/08/25 08:42:48;;;;;;;30.87;4.97;;;;;;;-143.84;43.89;44883.41;5110405;28;20480;-80
2022/08/25 08:45:30;;;;;;;24.20;9.97;;;;;;;-143.84;42.08;44879.59;5110072;28;20474;-75
2022/08/25 08:48:16;;;;;;;26.30;8.67;;;;;;;-143.84;41.12;44841.53;5109764;28;20804;-78
2022/08/25 08:50:56;;;;;;;19.63;4.20;;;;;;;-143.84;42.19;44877.69;5117513;27;20465;-77
2022/08/25 08:53:29;;;;;;;28.73;4.53;;;;;;;-143.84;40.64;44854.84;5128878;27;20450;-77
2022/08/25 08:56:00;;;;;;;16.50;4.30;;;;;;;-143.84;40.11;44864.38;5131191;27;20442;-78
2022/08/25 08:58:35;;;;;;;24.63;4.20;;;;;;;-143.84;38.29;44835.81;5130676;27;20494;-77
2022/08/25 09:01:03;;;;;;;16.87;4.13;;;;;;;-143.84;38.80;44866.28;5131207;27;20465;-77
2022/08/25 09:03:36;;;;;;;18.50;4.33;;;;;;;-143.84;39.86;44828.19;5130980;27;20445;-78
2022/08/25 09:06:07;;;;;;;34.40;4.27;;;;;;;-143.84;39.98;44873.88;5130817;27;20552;-78
2022/08/25 09:08:36;;;;;;;28.10;3.93;;;;;;;-143.84;39.00;44843.44;5130385;27;20832;-79
2022/08/25 09:11:12;;;;;;;26.90;3.93;;;;;;;-143.84;38.76;44828.19;5130618;28;20551;-78
2022/08/25 09:13:57;;;;;;;22.10;4.07;;;;;;;-143.84;38.73;44841.53;5130592;28;20449;-76
2022/08/25 09:19:30;;;;;;;19.47;4.37;;;;;;;-143.84;37.74;44873.88;5130398;28;20807;-76
2022/08/25 09:22:03;;;;;;;33.57;4.80;;;;;;;-143.84;38.04;44858.66;5130468;28;20503;-76
2022/08/25 09:24:51;;;;;;;23.37;4.20;;;;;;;-143.84;37.98;44841.53;5130018;28;20486;-77
2022/08/25 09:27:28;;;;;;;15.70;3.80;;;;;;;-143.84;37.39;44820.56;5130542;28;20438;-76
2022/08/25 09:30:07;;;;;;;12.40;3.57;;;;;;;-143.84;37.30;44828.19;5130083;28;20524;-76
2022/08/25 09:32:38;;;;;;;23.60;4.10;;;;;;;-143.84;37.93;44812.97;5129914;28;20951;-76
2022/08/25 09:35:09;;;;;;;24.53;5.70;;;;;;;-143.84;36.84;44812.97;5130211;28;20491;-76
2022/08/25 09:37:36;;;;;;;33.97;4.60;;;;;;;-143.84;34.65;44814.88;5130168;28;20433;-76
2022/08/25 09:40:04;;;;;;;17.43;4.20;;;;;;;-143.84;34.52;44811.06;5130122;28;20491;-76
2022/08/25 09:42:47;;;;;;;33.03;4.40;;;;;;;-143.84;34.05;44839.63;5129962;28;20449;-77
2022/08/25 09:45:16;;;;;;;40.10;4.77;;;;;;;-143.84;33.79;44833.91;5130130;28;20617;-77
2022/08/25 09:47:44;;;;;;;34.73;4.80;;;;;;;-143.84;34.86;44809.16;5131496;27;20502;-76
2022/08/25 09:50:16;;;;;;;19.93;4.20;;;;;;;-143.84;34.23;44835.81;5134856;27;20916;-76
2022/08/25 09:52:44;;;;;;;39.33;5.20;;;;;;;-143.84;33.59;44830.09;5135284;27;20437;-76
2022/08/25 09:55:30;;;;;;;27.60;4.30;;;;;;;-143.84;33.84;44805.34;5135503;27;20472;-76
2022/08/25 09:57:58;;;;;;;37.47;4.67;;;;;;;-143.84;34.31;44828.19;5135299;27;20767;-76
2022/08/25 10:00:32;;;;;;;40.37;5.27;;;;;;;-143.84;33.91;44845.31;5135044;27;20772;-76
2022/08/25 10:03:10;;;;;;;28.10;4.93;;;;;;;-143.84;33.91;44843.44;5135390;27;20516;-76
2022/08/25 10:05:49;;;;;;;49.53;4.97;;;;;;;-143.84;34.27;44856.75;5134849;27;20470;-76
2022/08/25 10:08:30;;;;;;;24.63;4.87;;;;;;;-143.84;34.89;44839.63;5134779;27;20459;-76
2022/08/25 10:11:01;;;;;;;21.33;4.83;;;;;;;-143.84;34.53;44845.31;5135187;27;20493;-76
2022/08/25 10:13:40;;;;;;;29.97;5.40;;;;;;;-143.84;34.22;44864.38;5134935;27;20853;-76
2022/08/25 10:16:14;;;;;;;27.07;5.17;;;;;;;-143.84;34.79;44839.63;5135179;27;20438;-76
2022/08/25 10:18:42;;;;;;;29.43;4.70;;;;;;;-143.84;35.22;44820.56;5134788;27;20506;-76
2022/08/25 10:21:12;;;;;;;38.07;5.30;;;;;;;-143.84;36.02;44862.47;5134860;27;20482;-76
2022/08/25 10:23:46;;;;;;;44.40;5.50;;;;;;;-143.84;35.76;44837.72;5134297;27;20862;-76
2022/08/25 10:26:20;;;;;;;33.77;5.20;;;;;;;-143.84;35.02;44809.16;5134249;27;20477;-75
2022/08/25 10:29:00;;;;;;;40.83;6.13;;;;;;;-143.84;35.03;44824.38;5134214;27;20430;-76
2022/08/25 10:31:36;;;;;;;106.00;45.83;;;;;;;-143.84;34.02;44828.19;5133647;27;20774;-76
2022/08/25 10:34:15;;;;;;;37.23;5.90;;;;;;;-143.84;34.74;44868.19;5133434;27;20506;-73
2022/08/25 10:36:56;;;;;;;34.80;5.63;;;;;;;-143.84;34.36;44797.72;5133696;27;20495;-75
2022/08/25 10:39:38;;;;;;;23.50;5.53;;;;;;;-143.84;34.84;44790.13;5133469;27;20430;-73
2022/08/25 10:42:19;;;;;;;45.70;6.30;;;;;;;-143.84;34.05;44860.56;5133072;27;20438;-73
2022/08/25 10:48:11;;;;;;;32.03;5.40;;;;;;;-143.84;36.90;44824.38;5133354;27;20429;-73
2022/08/25 10:50:44;;;;;;;35.30;5.23;;;;;;;-143.84;36.83;44852.94;5133189;27;20443;-73
2022/08/25 10:53:28;;;;;;;49.63;6.80;;;;;;;-143.84;36.54;44845.31;5133030;27;20442;-73
2022/08/25 10:56:04;;;;;;;24.73;5.77;;;;;;;-143.84;36.58;44807.25;5133574;27;21138;-73
2022/08/25 10:58:50;;;;;;;47.63;5.87;;;;;;;-143.84;36.79;44851.03;5132960;27;20464;-73
2022/08/25 11:01:30;;;;;;;41.00;7.20;;;;;;;-143.84;36.99;44845.31;5132470;27;20959;-73
2022/08/25 11:04:03;;;;;;;34.73;6.27;;;;;;;-143.84;37.74;44843.44;5132677;27;20480;-73
2022/08/25 11:06:39;;;;;;;48.03;6.63;;;;;;;-143.84;36.67;44854.84;5132832;27;20474;-77
2022/08/25 11:09:10;;;;;;;49.60;9.60;;;;;;;-143.84;37.19;44849.13;5132867;27;20857;-80
2022/08/25 11:11:45;;;;;;;59.47;7.90;;;;;;;-143.84;36.94;44835.81;5133279;27;21002;-74
2022/08/25 11:14:19;;;;;;;120.47;19.23;;;;;;;-143.84;36.89;44851.03;5133065;27;20781;-73
2022/08/25 11:16:53;;;;;;;44.77;7.10;;;;;;;-143.84;36.36;44814.88;5133090;27;20438;-73
2022/08/25 11:19:29;;;;;;;47.30;9.33;;;;;;;-143.84;36.64;44847.22;5132883;27;20445;-73
2022/08/25 11:22:04;;;;;;;50.47;10.00;;;;;;;-143.84;36.35;44858.66;5132864;27;20939;-73
2022/08/25 11:24:47;;;;;;;48.43;6.90;;;;;;;-143.84;36.03;44870.09;5132118;27;20437;-73
2022/08/25 11:27:21;;;;;;;45.67;7.10;;;;;;;-143.84;36.41;44866.28;5132863;27;20462;-73
2022/08/25 11:29:58;;;;;;;42.47;7.87;;;;;;;-143.84;35.42;44885.31;5133077;27;20446;-73
2022/08/25 11:32:32;;;;;;;42.23;7.43;;;;;;;-143.84;35.91;44902.44;5132688;27;20442;-73
2022/08/25 11:35:02;;;;;;;36.03;6.60;;;;;;;-143.84;35.71;44885.31;5132993;27;20438;-73